sensor_id;sensor_type;location;lat;lon;timestamp;temperature;humidity
43227;DHT22;28839;52.404;9.808;2023-12-07T00:02:49;2.20;99.90
43227;DHT22;28839;52.404;9.808;2023-12-07T00:09:43;2.20;99.90
43227;DHT22;28839;52.404;9.808;2023-12-07T00:16:38;2.30;99.90
43227;DHT22;28839;52.404;9.808;2023-12-07T00:23:32;2.20;99.90
43227;DHT22;28839;52.404;9.808;2023-12-07T00:30:26;2.30;99.90
43227;DHT22;28839;52.404;9.808;2023-12-07T00:37:21;2.30;99.90
43227;DHT22;28839;52.404;9.808;2023-12-07T00:44:15;2.30;99.90
43227;DHT22;28839;52.404;9.808;2023-12-07T00:51:09;2.30;99.90
43227;DHT22;28839;52.404;9.808;2023-12-07T00:58:04;2.30;99.90
43227;DHT22;28839;52.404;9.808;2023-12-07T01:04:58;2.40;99.90
43227;DHT22;28839;52.404;9.808;2023-12-07T01:11:52;2.40;99.90
43227;DHT22;28839;52.404;9.808;2023-12-07T01:18:47;2.50;99.90
43227;DHT22;28839;52.404;9.808;2023-12-07T01:25:41;2.40;99.90
43227;DHT22;28839;52.404;9.808;2023-12-07T01:32:35;2.50;99.90
43227;DHT22;28839;52.404;9.808;2023-12-07T01:39:30;2.50;99.90
43227;DHT22;28839;52.404;9.808;2023-12-07T01:46:24;2.40;99.90
43227;DHT22;28839;52.404;9.808;2023-12-07T01:53:18;2.50;99.90
43227;DHT22;28839;52.404;9.808;2023-12-07T02:00:14;2.50;99.90
43227;DHT22;28839;52.404;9.808;2023-12-07T02:07:08;2.60;99.90
43227;DHT22;28839;52.404;9.808;2023-12-07T02:14:03;2.60;99.90
43227;DHT22;28839;52.404;9.808;2023-12-07T02:21:06;2.60;99.90
43227;DHT22;28839;52.404;9.808;2023-12-07T02:28:04;2.50;99.90
43227;DHT22;28839;52.404;9.808;2023-12-07T02:34:58;2.50;99.90
43227;DHT22;28839;52.404;9.808;2023-12-07T02:41:52;2.60;99.90
43227;DHT22;28839;52.404;9.808;2023-12-07T02:48:48;2.60;99.90
43227;DHT22;28839;52.404;9.808;2023-12-07T02:55:42;2.40;99.90
43227;DHT22;28839;52.404;9.808;2023-12-07T03:02:36;2.50;99.90
43227;DHT22;28839;52.404;9.808;2023-12-07T03:09:31;2.50;99.90
43227;DHT22;28839;52.404;9.808;2023-12-07T03:16:25;2.50;99.90
43227;DHT22;28839;52.404;9.808;2023-12-07T03:23:19;2.50;99.90
43227;DHT22;28839;52.404;9.808;2023-12-07T03:30:14;2.40;99.90
43227;DHT22;28839;52.404;9.808;2023-12-07T03:37:08;2.50;99.90
43227;DHT22;28839;52.404;9.808;2023-12-07T03:44:02;2.50;99.90
43227;DHT22;28839;52.404;9.808;2023-12-07T03:50:57;2.50;99.90
43227;DHT22;28839;52.404;9.808;2023-12-07T03:57:51;2.50;99.90
43227;DHT22;28839;52.404;9.808;2023-12-07T04:04:44;2.50;99.90
43227;DHT22;28839;52.404;9.808;2023-12-07T04:11:39;2.50;99.90
43227;DHT22;28839;52.404;9.808;2023-12-07T04:18:33;2.60;99.90
43227;DHT22;28839;52.404;9.808;2023-12-07T04:25:27;2.50;99.90
43227;DHT22;28839;52.404;9.808;2023-12-07T04:32:22;2.50;99.90
43227;DHT22;28839;52.404;9.808;2023-12-07T04:39:19;2.40;99.90
43227;DHT22;28839;52.404;9.808;2023-12-07T04:46:13;2.50;99.90
43227;DHT22;28839;52.404;9.808;2023-12-07T04:53:08;2.50;99.90
43227;DHT22;28839;52.404;9.808;2023-12-07T05:00:02;2.40;99.90
43227;DHT22;28839;52.404;9.808;2023-12-07T05:06:58;2.40;99.90
43227;DHT22;28839;52.404;9.808;2023-12-07T05:13:53;2.40;99.90
43227;DHT22;28839;52.404;9.808;2023-12-07T05:20:47;2.60;99.90
43227;DHT22;28839;52.404;9.808;2023-12-07T05:27:41;2.60;99.90
43227;DHT22;28839;52.404;9.808;2023-12-07T05:34:36;2.60;99.90
43227;DHT22;28839;52.404;9.808;2023-12-07T05:41:30;2.60;99.90
43227;DHT22;28839;52.404;9.808;2023-12-07T05:48:24;2.60;99.90
43227;DHT22;28839;52.404;9.808;2023-12-07T05:55:19;2.60;99.90
43227;DHT22;28839;52.404;9.808;2023-12-07T06:02:13;2.60;99.90
43227;DHT22;28839;52.404;9.808;2023-12-07T06:09:06;2.60;99.90
43227;DHT22;28839;52.404;9.808;2023-12-07T06:16:02;2.60;99.90
43227;DHT22;28839;52.404;9.808;2023-12-07T06:22:56;2.70;99.90
43227;DHT22;28839;52.404;9.808;2023-12-07T06:29:50;2.80;99.90
43227;DHT22;28839;52.404;9.808;2023-12-07T06:36:45;2.70;99.90
43227;DHT22;28839;52.404;9.808;2023-12-07T06:43:40;2.70;99.90
43227;DHT22;28839;52.404;9.808;2023-12-07T06:50:33;2.80;99.90
43227;DHT22;28839;52.404;9.808;2023-12-07T06:57:28;2.70;99.90
43227;DHT22;28839;52.404;9.808;2023-12-07T07:04:22;2.70;99.90
43227;DHT22;28839;52.404;9.808;2023-12-07T07:11:16;2.70;99.90
43227;DHT22;28839;52.404;9.808;2023-12-07T07:18:11;2.70;99.90
43227;DHT22;28839;52.404;9.808;2023-12-07T07:25:05;2.70;99.90
43227;DHT22;28839;52.404;9.808;2023-12-07T07:31:59;2.70;99.90
43227;DHT22;28839;52.404;9.808;2023-12-07T07:38:54;2.70;99.90
43227;DHT22;28839;52.404;9.808;2023-12-07T07:45:48;2.70;99.90
43227;DHT22;28839;52.404;9.808;2023-12-07T07:52:42;2.70;99.90
43227;DHT22;28839;52.404;9.808;2023-12-07T07:59:37;2.80;99.90
43227;DHT22;28839;52.404;9.808;2023-12-07T08:06:31;2.80;99.90
43227;DHT22;28839;52.404;9.808;2023-12-07T08:13:28;2.80;99.90
43227;DHT22;28839;52.404;9.808;2023-12-07T08:20:23;2.80;99.90
43227;DHT22;28839;52.404;9.808;2023-12-07T08:27:17;2.90;99.90
43227;DHT22;28839;52.404;9.808;2023-12-07T08:34:11;2.90;99.90
43227;DHT22;28839;52.404;9.808;2023-12-07T08:41:06;2.90;99.90
43227;DHT22;28839;52.404;9.808;2023-12-07T08:48:00;3.00;99.90
43227;DHT22;28839;52.404;9.808;2023-12-07T08:54:53;3.00;99.90
43227;DHT22;28839;52.404;9.808;2023-12-07T09:01:49;3.00;99.90
43227;DHT22;28839;52.404;9.808;2023-12-07T09:08:43;3.10;99.90
43227;DHT22;28839;52.404;9.808;2023-12-07T09:15:37;3.20;99.90
43227;DHT22;28839;52.404;9.808;2023-12-07T09:22:34;3.30;99.90
43227;DHT22;28839;52.404;9.808;2023-12-07T09:29:30;3.20;99.90
43227;DHT22;28839;52.404;9.808;2023-12-07T09:36:24;3.20;99.90
43227;DHT22;28839;52.404;9.808;2023-12-07T09:43:21;3.20;99.90
43227;DHT22;28839;52.404;9.808;2023-12-07T09:50:16;3.20;99.90
43227;DHT22;28839;52.404;9.808;2023-12-07T09:57:11;3.20;99.90
43227;DHT22;28839;52.404;9.808;2023-12-07T10:04:20;3.30;99.90
43227;DHT22;28839;52.404;9.808;2023-12-07T10:11:15;3.30;99.90
43227;DHT22;28839;52.404;9.808;2023-12-07T10:18:10;3.30;99.90
43227;DHT22;28839;52.404;9.808;2023-12-07T10:25:06;3.40;99.90
43227;DHT22;28839;52.404;9.808;2023-12-07T10:32:02;3.40;99.90
43227;DHT22;28839;52.404;9.808;2023-12-07T10:38:57;3.40;99.90
43227;DHT22;28839;52.404;9.808;2023-12-07T10:45:52;3.30;99.90
43227;DHT22;28839;52.404;9.808;2023-12-07T10:52:51;3.40;99.90
43227;DHT22;28839;52.404;9.808;2023-12-07T10:59:48;3.40;99.90
43227;DHT22;28839;52.404;9.808;2023-12-07T11:06:49;3.50;99.90
43227;DHT22;28839;52.404;9.808;2023-12-07T11:13:49;3.60;99.90
43227;DHT22;28839;52.404;9.808;2023-12-07T11:20:46;3.70;99.90
43227;DHT22;28839;52.404;9.808;2023-12-07T11:27:44;3.60;99.90
43227;DHT22;28839;52.404;9.808;2023-12-07T11:34:43;3.70;99.90
43227;DHT22;28839;52.404;9.808;2023-12-07T11:41:44;3.70;99.90
43227;DHT22;28839;52.404;9.808;2023-12-07T11:48:39;3.80;99.90
43227;DHT22;28839;52.404;9.808;2023-12-07T11:55:33;3.90;99.90
43227;DHT22;28839;52.404;9.808;2023-12-07T12:02:27;3.90;99.90
43227;DHT22;28839;52.404;9.808;2023-12-07T12:09:23;3.90;99.90
43227;DHT22;28839;52.404;9.808;2023-12-07T12:16:17;3.90;99.90
43227;DHT22;28839;52.404;9.808;2023-12-07T12:23:11;3.80;99.90
43227;DHT22;28839;52.404;9.808;2023-12-07T12:30:08;3.90;99.90
43227;DHT22;28839;52.404;9.808;2023-12-07T12:37:03;3.90;99.90
43227;DHT22;28839;52.404;9.808;2023-12-07T12:44:01;3.90;99.90
43227;DHT22;28839;52.404;9.808;2023-12-07T12:50:56;3.80;99.90
43227;DHT22;28839;52.404;9.808;2023-12-07T12:57:50;3.90;99.90
43227;DHT22;28839;52.404;9.808;2023-12-07T13:04:44;3.90;99.90
43227;DHT22;28839;52.404;9.808;2023-12-07T13:11:39;3.90;99.90
43227;DHT22;28839;52.404;9.808;2023-12-07T13:18:34;3.70;99.90
43227;DHT22;28839;52.404;9.808;2023-12-07T13:25:28;3.60;99.90
43227;DHT22;28839;52.404;9.808;2023-12-07T13:32:23;3.70;99.90
43227;DHT22;28839;52.404;9.808;2023-12-07T13:39:17;3.70;99.90
43227;DHT22;28839;52.404;9.808;2023-12-07T13:46:13;3.70;99.90
43227;DHT22;28839;52.404;9.808;2023-12-07T13:53:09;3.60;99.90
43227;DHT22;28839;52.404;9.808;2023-12-07T14:00:05;3.60;99.90
43227;DHT22;28839;52.404;9.808;2023-12-07T14:07:06;3.60;99.90
43227;DHT22;28839;52.404;9.808;2023-12-07T14:14:02;3.50;99.90
43227;DHT22;28839;52.404;9.808;2023-12-07T14:20:56;3.50;99.90
43227;DHT22;28839;52.404;9.808;2023-12-07T14:27:49;3.60;99.90
43227;DHT22;28839;52.404;9.808;2023-12-07T14:34:45;3.60;99.90
43227;DHT22;28839;52.404;9.808;2023-12-07T14:41:38;3.40;99.90
43227;DHT22;28839;52.404;9.808;2023-12-07T14:48:33;3.50;99.90
43227;DHT22;28839;52.404;9.808;2023-12-07T14:55:28;3.40;99.90
43227;DHT22;28839;52.404;9.808;2023-12-07T15:02:22;3.30;99.90
43227;DHT22;28839;52.404;9.808;2023-12-07T15:09:16;3.20;99.90
43227;DHT22;28839;52.404;9.808;2023-12-07T15:16:13;3.00;99.90
43227;DHT22;28839;52.404;9.808;2023-12-07T15:23:07;2.80;99.90
43227;DHT22;28839;52.404;9.808;2023-12-07T15:30:01;2.60;99.90
43227;DHT22;28839;52.404;9.808;2023-12-07T15:37:00;2.50;99.90
43227;DHT22;28839;52.404;9.808;2023-12-07T15:43:54;2.20;99.90
43227;DHT22;28839;52.404;9.808;2023-12-07T15:50:48;2.10;99.90
43227;DHT22;28839;52.404;9.808;2023-12-07T15:57:44;1.90;99.90
43227;DHT22;28839;52.404;9.808;2023-12-07T16:04:38;1.60;99.90
43227;DHT22;28839;52.404;9.808;2023-12-07T16:11:31;1.50;99.90
43227;DHT22;28839;52.404;9.808;2023-12-07T16:18:27;1.30;99.90
43227;DHT22;28839;52.404;9.808;2023-12-07T16:25:20;1.00;99.90
43227;DHT22;28839;52.404;9.808;2023-12-07T16:32:14;0.80;99.90
43227;DHT22;28839;52.404;9.808;2023-12-07T16:39:10;1.10;99.90
43227;DHT22;28839;52.404;9.808;2023-12-07T16:46:05;0.80;99.90
43227;DHT22;28839;52.404;9.808;2023-12-07T16:52:59;0.90;99.90
43227;DHT22;28839;52.404;9.808;2023-12-07T16:59:55;1.00;99.90
43227;DHT22;28839;52.404;9.808;2023-12-07T17:06:49;1.00;99.90
43227;DHT22;28839;52.404;9.808;2023-12-07T17:13:43;0.70;99.90
43227;DHT22;28839;52.404;9.808;2023-12-07T17:20:39;0.60;99.90
43227;DHT22;28839;52.404;9.808;2023-12-07T17:27:32;0.60;99.90
43227;DHT22;28839;52.404;9.808;2023-12-07T17:34:26;0.50;99.90
43227;DHT22;28839;52.404;9.808;2023-12-07T17:41:21;0.70;99.90
43227;DHT22;28839;52.404;9.808;2023-12-07T17:48:15;0.70;99.90
43227;DHT22;28839;52.404;9.808;2023-12-07T17:55:09;0.50;99.90
43227;DHT22;28839;52.404;9.808;2023-12-07T18:02:04;0.40;99.90
43227;DHT22;28839;52.404;9.808;2023-12-07T18:08:58;0.40;99.90
43227;DHT22;28839;52.404;9.808;2023-12-07T18:15:52;0.30;99.90
43227;DHT22;28839;52.404;9.808;2023-12-07T18:22:47;0.50;99.90
43227;DHT22;28839;52.404;9.808;2023-12-07T18:29:40;0.30;99.90
43227;DHT22;28839;52.404;9.808;2023-12-07T18:36:34;0.30;99.90
43227;DHT22;28839;52.404;9.808;2023-12-07T18:43:29;0.20;99.90
43227;DHT22;28839;52.404;9.808;2023-12-07T18:50:23;0.10;99.90
43227;DHT22;28839;52.404;9.808;2023-12-07T18:57:17;0.10;99.90
43227;DHT22;28839;52.404;9.808;2023-12-07T19:04:12;0.10;99.90
43227;DHT22;28839;52.404;9.808;2023-12-07T19:11:06;0.00;99.90
43227;DHT22;28839;52.404;9.808;2023-12-07T19:18:00;0.00;99.90
43227;DHT22;28839;52.404;9.808;2023-12-07T19:24:55;0.20;99.90
43227;DHT22;28839;52.404;9.808;2023-12-07T19:31:49;-0.10;99.90
43227;DHT22;28839;52.404;9.808;2023-12-07T19:38:43;-0.30;99.90
43227;DHT22;28839;52.404;9.808;2023-12-07T19:45:38;-0.20;99.90
43227;DHT22;28839;52.404;9.808;2023-12-07T19:52:35;-0.20;99.90
43227;DHT22;28839;52.404;9.808;2023-12-07T19:59:28;-0.10;99.90
43227;DHT22;28839;52.404;9.808;2023-12-07T20:06:23;-0.20;99.90
43227;DHT22;28839;52.404;9.808;2023-12-07T20:13:17;0.10;99.90
43227;DHT22;28839;52.404;9.808;2023-12-07T20:20:12;0.10;99.90
43227;DHT22;28839;52.404;9.808;2023-12-07T20:27:07;-0.20;99.90
43227;DHT22;28839;52.404;9.808;2023-12-07T20:34:00;-0.20;99.90
43227;DHT22;28839;52.404;9.808;2023-12-07T20:40:55;-0.20;99.90
43227;DHT22;28839;52.404;9.808;2023-12-07T20:47:50;-0.30;99.90
43227;DHT22;28839;52.404;9.808;2023-12-07T20:54:44;-0.40;99.90
43227;DHT22;28839;52.404;9.808;2023-12-07T21:01:37;-0.30;99.90
43227;DHT22;28839;52.404;9.808;2023-12-07T21:08:33;-0.40;99.90
43227;DHT22;28839;52.404;9.808;2023-12-07T21:15:27;-0.40;99.90
43227;DHT22;28839;52.404;9.808;2023-12-07T21:22:21;-0.50;99.90
43227;DHT22;28839;52.404;9.808;2023-12-07T21:29:17;-0.60;99.90
43227;DHT22;28839;52.404;9.808;2023-12-07T21:36:11;-0.80;99.90
43227;DHT22;28839;52.404;9.808;2023-12-07T21:43:04;-0.60;99.90
43227;DHT22;28839;52.404;9.808;2023-12-07T21:49:59;-0.50;99.90
43227;DHT22;28839;52.404;9.808;2023-12-07T21:56:55;-0.40;99.90
43227;DHT22;28839;52.404;9.808;2023-12-07T22:03:49;-0.60;99.90
43227;DHT22;28839;52.404;9.808;2023-12-07T22:10:44;-0.80;99.90
43227;DHT22;28839;52.404;9.808;2023-12-07T22:17:38;-0.80;99.90
43227;DHT22;28839;52.404;9.808;2023-12-07T22:24:32;-0.60;99.90
43227;DHT22;28839;52.404;9.808;2023-12-07T22:31:28;-0.60;99.90
43227;DHT22;28839;52.404;9.808;2023-12-07T22:38:21;-0.70;99.90
43227;DHT22;28839;52.404;9.808;2023-12-07T22:45:15;-0.60;99.90
43227;DHT22;28839;52.404;9.808;2023-12-07T22:52:11;-0.70;99.90
43227;DHT22;28839;52.404;9.808;2023-12-07T22:59:05;-0.70;99.90
43227;DHT22;28839;52.404;9.808;2023-12-07T23:05:59;-0.80;99.90
43227;DHT22;28839;52.404;9.808;2023-12-07T23:12:54;-0.90;99.90
43227;DHT22;28839;52.404;9.808;2023-12-07T23:19:47;-1.00;99.90
43227;DHT22;28839;52.404;9.808;2023-12-07T23:26:42;-1.10;99.90
43227;DHT22;28839;52.404;9.808;2023-12-07T23:33:37;-1.10;99.90
43227;DHT22;28839;52.404;9.808;2023-12-07T23:40:31;-1.20;99.90
43227;DHT22;28839;52.404;9.808;2023-12-07T23:47:25;-1.00;99.90
43227;DHT22;28839;52.404;9.808;2023-12-07T23:54:20;-1.10;99.90
